sensor_id;sensor_type;location;lat;lon;timestamp;temperature;humidity
3850;DHT22;1940;51.052;13.678;2024-01-06T00:00:20;4.20;94.90
3850;DHT22;1940;51.052;13.678;2024-01-06T00:02:48;4.30;94.70
3850;DHT22;1940;51.052;13.678;2024-01-06T00:05:14;4.30;94.80
3850;DHT22;1940;51.052;13.678;2024-01-06T00:07:39;4.20;94.60
3850;DHT22;1940;51.052;13.678;2024-01-06T00:10:06;4.30;94.70
3850;DHT22;1940;51.052;13.678;2024-01-06T00:12:31;4.30;94.60
3850;DHT22;1940;51.052;13.678;2024-01-06T00:14:57;4.30;94.70
3850;DHT22;1940;51.052;13.678;2024-01-06T00:17:22;4.30;94.80
3850;DHT22;1940;51.052;13.678;2024-01-06T00:19:48;4.30;94.40
3850;DHT22;1940;51.052;13.678;2024-01-06T00:22:17;4.20;94.40
3850;DHT22;1940;51.052;13.678;2024-01-06T00:24:43;4.20;94.40
3850;DHT22;1940;51.052;13.678;2024-01-06T00:27:08;4.20;94.20
3850;DHT22;1940;51.052;13.678;2024-01-06T00:29:33;4.20;94.40
3850;DHT22;1940;51.052;13.678;2024-01-06T00:31:59;4.20;94.60
3850;DHT22;1940;51.052;13.678;2024-01-06T00:34:25;4.20;94.60
3850;DHT22;1940;51.052;13.678;2024-01-06T00:36:50;4.20;94.70
3850;DHT22;1940;51.052;13.678;2024-01-06T00:39:16;4.20;94.70
3850;DHT22;1940;51.052;13.678;2024-01-06T00:41:41;4.20;94.80
3850;DHT22;1940;51.052;13.678;2024-01-06T00:44:07;4.20;94.70
3850;DHT22;1940;51.052;13.678;2024-01-06T00:46:32;4.10;94.40
3850;DHT22;1940;51.052;13.678;2024-01-06T00:48:58;4.10;94.40
3850;DHT22;1940;51.052;13.678;2024-01-06T00:51:23;4.00;94.40
3850;DHT22;1940;51.052;13.678;2024-01-06T00:53:48;4.00;94.60
3850;DHT22;1940;51.052;13.678;2024-01-06T00:56:14;4.00;94.70
3850;DHT22;1940;51.052;13.678;2024-01-06T00:58:40;4.00;94.90
3850;DHT22;1940;51.052;13.678;2024-01-06T01:01:05;4.00;95.20
3850;DHT22;1940;51.052;13.678;2024-01-06T01:03:31;4.00;95.00
3850;DHT22;1940;51.052;13.678;2024-01-06T01:05:56;4.00;95.20
3850;DHT22;1940;51.052;13.678;2024-01-06T01:08:22;4.00;95.20
3850;DHT22;1940;51.052;13.678;2024-01-06T01:10:47;4.00;95.20
3850;DHT22;1940;51.052;13.678;2024-01-06T01:13:12;4.00;95.20
3850;DHT22;1940;51.052;13.678;2024-01-06T01:15:38;4.00;95.20
3850;DHT22;1940;51.052;13.678;2024-01-06T01:18:04;3.90;95.20
3850;DHT22;1940;51.052;13.678;2024-01-06T01:20:29;4.00;95.20
3850;DHT22;1940;51.052;13.678;2024-01-06T01:22:55;4.00;95.20
3850;DHT22;1940;51.052;13.678;2024-01-06T01:25:20;4.00;95.20
3850;DHT22;1940;51.052;13.678;2024-01-06T01:27:45;4.00;95.20
3850;DHT22;1940;51.052;13.678;2024-01-06T01:30:11;4.00;95.20
3850;DHT22;1940;51.052;13.678;2024-01-06T01:32:37;4.00;95.20
3850;DHT22;1940;51.052;13.678;2024-01-06T01:35:02;4.00;95.20
3850;DHT22;1940;51.052;13.678;2024-01-06T01:37:28;4.00;95.10
3850;DHT22;1940;51.052;13.678;2024-01-06T01:39:55;3.90;95.20
3850;DHT22;1940;51.052;13.678;2024-01-06T01:42:20;3.90;95.20
3850;DHT22;1940;51.052;13.678;2024-01-06T01:44:46;3.90;95.20
3850;DHT22;1940;51.052;13.678;2024-01-06T01:47:11;3.90;95.20
3850;DHT22;1940;51.052;13.678;2024-01-06T01:49:37;3.80;95.20
3850;DHT22;1940;51.052;13.678;2024-01-06T01:52:03;3.80;95.20
3850;DHT22;1940;51.052;13.678;2024-01-06T01:54:29;3.70;95.20
3850;DHT22;1940;51.052;13.678;2024-01-06T01:56:55;3.80;95.20
3850;DHT22;1940;51.052;13.678;2024-01-06T01:59:20;3.80;95.20
3850;DHT22;1940;51.052;13.678;2024-01-06T02:01:46;3.80;95.20
3850;DHT22;1940;51.052;13.678;2024-01-06T02:04:12;3.80;95.20
3850;DHT22;1940;51.052;13.678;2024-01-06T02:06:38;3.70;95.20
3850;DHT22;1940;51.052;13.678;2024-01-06T02:09:03;3.70;95.20
3850;DHT22;1940;51.052;13.678;2024-01-06T02:11:29;3.80;95.20
3850;DHT22;1940;51.052;13.678;2024-01-06T02:13:54;3.70;95.20
3850;DHT22;1940;51.052;13.678;2024-01-06T02:16:20;3.70;95.20
3850;DHT22;1940;51.052;13.678;2024-01-06T02:18:46;3.60;95.20
3850;DHT22;1940;51.052;13.678;2024-01-06T02:21:11;3.60;95.10
3850;DHT22;1940;51.052;13.678;2024-01-06T02:23:37;3.50;95.00
3850;DHT22;1940;51.052;13.678;2024-01-06T02:26:03;3.50;94.90
3850;DHT22;1940;51.052;13.678;2024-01-06T02:28:28;3.50;94.90
3850;DHT22;1940;51.052;13.678;2024-01-06T02:30:54;3.40;94.90
3850;DHT22;1940;51.052;13.678;2024-01-06T02:33:19;3.50;95.20
3850;DHT22;1940;51.052;13.678;2024-01-06T02:35:46;3.60;95.20
3850;DHT22;1940;51.052;13.678;2024-01-06T02:38:12;3.60;95.20
3850;DHT22;1940;51.052;13.678;2024-01-06T02:40:37;3.60;95.20
3850;DHT22;1940;51.052;13.678;2024-01-06T02:43:03;3.60;95.20
3850;DHT22;1940;51.052;13.678;2024-01-06T02:45:28;3.60;95.20
3850;DHT22;1940;51.052;13.678;2024-01-06T02:47:54;3.60;95.20
3850;DHT22;1940;51.052;13.678;2024-01-06T02:50:57;3.70;95.20
3850;DHT22;1940;51.052;13.678;2024-01-06T02:53:22;3.70;95.20
3850;DHT22;1940;51.052;13.678;2024-01-06T02:55:48;3.60;95.20
3850;DHT22;1940;51.052;13.678;2024-01-06T02:58:13;3.60;95.20
3850;DHT22;1940;51.052;13.678;2024-01-06T03:00:38;3.60;95.10
3850;DHT22;1940;51.052;13.678;2024-01-06T03:03:04;3.50;94.70
3850;DHT22;1940;51.052;13.678;2024-01-06T03:05:31;3.50;94.40
3850;DHT22;1940;51.052;13.678;2024-01-06T03:07:56;3.40;94.20
3850;DHT22;1940;51.052;13.678;2024-01-06T03:10:22;3.30;94.00
3850;DHT22;1940;51.052;13.678;2024-01-06T03:12:48;3.30;94.00
3850;DHT22;1940;51.052;13.678;2024-01-06T03:15:13;3.30;94.10
3850;DHT22;1940;51.052;13.678;2024-01-06T03:17:39;3.20;94.00
3850;DHT22;1940;51.052;13.678;2024-01-06T03:20:05;3.20;93.80
3850;DHT22;1940;51.052;13.678;2024-01-06T03:22:30;3.10;93.90
3850;DHT22;1940;51.052;13.678;2024-01-06T03:24:56;3.10;94.10
3850;DHT22;1940;51.052;13.678;2024-01-06T03:27:21;3.00;94.50
3850;DHT22;1940;51.052;13.678;2024-01-06T03:29:47;3.10;94.80
3850;DHT22;1940;51.052;13.678;2024-01-06T03:32:12;3.10;94.70
3850;DHT22;1940;51.052;13.678;2024-01-06T03:34:38;3.00;94.60
3850;DHT22;1940;51.052;13.678;2024-01-06T03:37:03;2.90;94.40
3850;DHT22;1940;51.052;13.678;2024-01-06T03:39:29;2.90;94.40
3850;DHT22;1940;51.052;13.678;2024-01-06T03:41:54;2.90;94.40
3850;DHT22;1940;51.052;13.678;2024-01-06T03:44:20;2.90;94.30
3850;DHT22;1940;51.052;13.678;2024-01-06T03:46:45;2.80;94.30
3850;DHT22;1940;51.052;13.678;2024-01-06T03:49:11;2.80;94.30
3850;DHT22;1940;51.052;13.678;2024-01-06T03:51:36;2.70;94.30
3850;DHT22;1940;51.052;13.678;2024-01-06T03:54:01;2.70;94.30
3850;DHT22;1940;51.052;13.678;2024-01-06T03:56:27;2.70;94.30
3850;DHT22;1940;51.052;13.678;2024-01-06T03:58:52;2.60;94.40
3850;DHT22;1940;51.052;13.678;2024-01-06T04:01:18;2.70;94.50
3850;DHT22;1940;51.052;13.678;2024-01-06T04:03:43;2.60;94.40
3850;DHT22;1940;51.052;13.678;2024-01-06T04:06:09;2.60;94.50
3850;DHT22;1940;51.052;13.678;2024-01-06T04:08:36;2.50;94.60
3850;DHT22;1940;51.052;13.678;2024-01-06T04:11:01;2.50;94.70
3850;DHT22;1940;51.052;13.678;2024-01-06T04:13:27;2.50;94.60
3850;DHT22;1940;51.052;13.678;2024-01-06T04:15:53;2.50;94.70
3850;DHT22;1940;51.052;13.678;2024-01-06T04:18:18;2.50;94.60
3850;DHT22;1940;51.052;13.678;2024-01-06T04:20:44;2.50;94.60
3850;DHT22;1940;51.052;13.678;2024-01-06T04:23:09;2.50;94.40
3850;DHT22;1940;51.052;13.678;2024-01-06T04:25:35;2.40;94.40
3850;DHT22;1940;51.052;13.678;2024-01-06T04:28:00;2.30;94.50
3850;DHT22;1940;51.052;13.678;2024-01-06T04:30:26;2.30;94.90
3850;DHT22;1940;51.052;13.678;2024-01-06T04:32:51;2.30;95.00
3850;DHT22;1940;51.052;13.678;2024-01-06T04:35:17;2.30;94.90
3850;DHT22;1940;51.052;13.678;2024-01-06T04:37:43;2.30;95.00
3850;DHT22;1940;51.052;13.678;2024-01-06T04:40:09;2.30;95.00
3850;DHT22;1940;51.052;13.678;2024-01-06T04:42:35;2.40;95.10
3850;DHT22;1940;51.052;13.678;2024-01-06T04:45:00;2.30;94.80
3850;DHT22;1940;51.052;13.678;2024-01-06T04:47:26;2.30;94.70
3850;DHT22;1940;51.052;13.678;2024-01-06T04:49:53;2.30;94.70
3850;DHT22;1940;51.052;13.678;2024-01-06T04:52:18;2.30;94.70
3850;DHT22;1940;51.052;13.678;2024-01-06T04:54:43;2.30;94.80
3850;DHT22;1940;51.052;13.678;2024-01-06T04:57:09;2.30;94.80
3850;DHT22;1940;51.052;13.678;2024-01-06T04:59:34;2.30;94.60
3850;DHT22;1940;51.052;13.678;2024-01-06T05:02:00;2.30;94.60
3850;DHT22;1940;51.052;13.678;2024-01-06T05:04:26;2.30;94.80
3850;DHT22;1940;51.052;13.678;2024-01-06T05:06:52;2.40;94.90
3850;DHT22;1940;51.052;13.678;2024-01-06T05:09:17;2.40;94.80
3850;DHT22;1940;51.052;13.678;2024-01-06T05:11:44;2.40;94.80
3850;DHT22;1940;51.052;13.678;2024-01-06T05:14:09;2.50;94.70
3850;DHT22;1940;51.052;13.678;2024-01-06T05:16:35;2.50;94.70
3850;DHT22;1940;51.052;13.678;2024-01-06T05:19:00;2.50;94.70
3850;DHT22;1940;51.052;13.678;2024-01-06T05:21:26;2.60;94.60
3850;DHT22;1940;51.052;13.678;2024-01-06T05:23:51;2.60;94.60
3850;DHT22;1940;51.052;13.678;2024-01-06T05:26:17;2.70;94.60
3850;DHT22;1940;51.052;13.678;2024-01-06T05:28:42;2.70;94.60
3850;DHT22;1940;51.052;13.678;2024-01-06T05:31:08;2.80;94.40
3850;DHT22;1940;51.052;13.678;2024-01-06T05:33:33;2.90;94.20
3850;DHT22;1940;51.052;13.678;2024-01-06T05:35:59;2.90;94.20
3850;DHT22;1940;51.052;13.678;2024-01-06T05:38:24;2.90;94.10
3850;DHT22;1940;51.052;13.678;2024-01-06T05:40:50;3.00;94.00
3850;DHT22;1940;51.052;13.678;2024-01-06T05:43:15;3.00;93.70
3850;DHT22;1940;51.052;13.678;2024-01-06T05:45:41;3.00;93.70
3850;DHT22;1940;51.052;13.678;2024-01-06T05:48:10;3.00;93.60
3850;DHT22;1940;51.052;13.678;2024-01-06T05:50:37;3.00;93.70
3850;DHT22;1940;51.052;13.678;2024-01-06T05:53:03;3.00;93.90
3850;DHT22;1940;51.052;13.678;2024-01-06T05:55:28;3.10;94.00
3850;DHT22;1940;51.052;13.678;2024-01-06T05:57:54;3.20;93.80
3850;DHT22;1940;51.052;13.678;2024-01-06T06:00:20;3.20;93.80
3850;DHT22;1940;51.052;13.678;2024-01-06T06:02:45;3.20;93.80
3850;DHT22;1940;51.052;13.678;2024-01-06T06:05:11;3.20;93.50
3850;DHT22;1940;51.052;13.678;2024-01-06T06:07:36;3.20;93.30
3850;DHT22;1940;51.052;13.678;2024-01-06T06:10:08;3.30;93.30
3850;DHT22;1940;51.052;13.678;2024-01-06T06:12:34;3.30;93.30
3850;DHT22;1940;51.052;13.678;2024-01-06T06:15:00;3.30;93.30
3850;DHT22;1940;51.052;13.678;2024-01-06T06:17:26;3.30;93.20
3850;DHT22;1940;51.052;13.678;2024-01-06T06:19:51;3.30;93.30
3850;DHT22;1940;51.052;13.678;2024-01-06T06:22:17;3.30;93.40
3850;DHT22;1940;51.052;13.678;2024-01-06T06:24:42;3.40;93.20
3850;DHT22;1940;51.052;13.678;2024-01-06T06:27:08;3.50;93.30
3850;DHT22;1940;51.052;13.678;2024-01-06T06:29:33;3.50;93.20
3850;DHT22;1940;51.052;13.678;2024-01-06T06:31:59;3.50;93.10
3850;DHT22;1940;51.052;13.678;2024-01-06T06:34:25;3.50;93.10
3850;DHT22;1940;51.052;13.678;2024-01-06T06:36:50;3.50;93.20
3850;DHT22;1940;51.052;13.678;2024-01-06T06:39:16;3.60;93.10
3850;DHT22;1940;51.052;13.678;2024-01-06T06:41:41;3.60;92.90
3850;DHT22;1940;51.052;13.678;2024-01-06T06:44:07;3.60;93.00
3850;DHT22;1940;51.052;13.678;2024-01-06T06:46:32;3.60;93.00
3850;DHT22;1940;51.052;13.678;2024-01-06T06:48:57;3.60;93.10
3850;DHT22;1940;51.052;13.678;2024-01-06T06:51:23;3.60;93.00
3850;DHT22;1940;51.052;13.678;2024-01-06T06:53:52;3.70;92.90
3850;DHT22;1940;51.052;13.678;2024-01-06T06:56:17;3.70;92.80
3850;DHT22;1940;51.052;13.678;2024-01-06T06:58:43;3.70;92.70
3850;DHT22;1940;51.052;13.678;2024-01-06T07:01:08;3.70;92.70
3850;DHT22;1940;51.052;13.678;2024-01-06T07:03:34;3.70;92.70
3850;DHT22;1940;51.052;13.678;2024-01-06T07:05:59;3.70;92.80
3850;DHT22;1940;51.052;13.678;2024-01-06T07:08:25;3.50;92.80
3850;DHT22;1940;51.052;13.678;2024-01-06T07:10:50;3.50;93.00
3850;DHT22;1940;51.052;13.678;2024-01-06T07:13:16;3.50;93.10
3850;DHT22;1940;51.052;13.678;2024-01-06T07:15:41;3.60;93.10
3850;DHT22;1940;51.052;13.678;2024-01-06T07:18:07;3.60;93.00
3850;DHT22;1940;51.052;13.678;2024-01-06T07:20:33;3.60;93.10
3850;DHT22;1940;51.052;13.678;2024-01-06T07:22:58;3.70;93.10
3850;DHT22;1940;51.052;13.678;2024-01-06T07:25:23;3.80;93.10
3850;DHT22;1940;51.052;13.678;2024-01-06T07:27:49;3.80;92.90
3850;DHT22;1940;51.052;13.678;2024-01-06T07:30:14;3.80;92.70
3850;DHT22;1940;51.052;13.678;2024-01-06T07:32:40;3.80;92.70
3850;DHT22;1940;51.052;13.678;2024-01-06T07:35:06;3.80;92.70
3850;DHT22;1940;51.052;13.678;2024-01-06T07:37:31;3.80;92.70
3850;DHT22;1940;51.052;13.678;2024-01-06T07:39:57;3.90;92.60
3850;DHT22;1940;51.052;13.678;2024-01-06T07:42:22;3.90;92.50
3850;DHT22;1940;51.052;13.678;2024-01-06T07:44:48;3.90;92.30
3850;DHT22;1940;51.052;13.678;2024-01-06T07:47:13;3.80;92.50
3850;DHT22;1940;51.052;13.678;2024-01-06T07:49:40;3.80;92.60
3850;DHT22;1940;51.052;13.678;2024-01-06T07:52:05;3.80;92.90
3850;DHT22;1940;51.052;13.678;2024-01-06T07:54:30;3.90;92.80
3850;DHT22;1940;51.052;13.678;2024-01-06T07:56:56;4.00;92.70
3850;DHT22;1940;51.052;13.678;2024-01-06T07:59:22;4.10;92.70
3850;DHT22;1940;51.052;13.678;2024-01-06T08:01:47;4.10;92.60
3850;DHT22;1940;51.052;13.678;2024-01-06T08:04:13;4.20;92.60
3850;DHT22;1940;51.052;13.678;2024-01-06T08:06:38;4.20;92.60
3850;DHT22;1940;51.052;13.678;2024-01-06T08:09:04;4.30;92.40
3850;DHT22;1940;51.052;13.678;2024-01-06T08:11:29;4.30;92.30
3850;DHT22;1940;51.052;13.678;2024-01-06T08:13:55;4.30;92.10
3850;DHT22;1940;51.052;13.678;2024-01-06T08:16:20;4.40;92.20
3850;DHT22;1940;51.052;13.678;2024-01-06T08:18:46;4.40;92.20
3850;DHT22;1940;51.052;13.678;2024-01-06T08:21:12;4.50;92.10
3850;DHT22;1940;51.052;13.678;2024-01-06T08:23:37;4.50;91.40
3850;DHT22;1940;51.052;13.678;2024-01-06T08:26:03;4.50;91.30
3850;DHT22;1940;51.052;13.678;2024-01-06T08:28:29;4.50;91.20
3850;DHT22;1940;51.052;13.678;2024-01-06T08:30:55;4.50;91.20
3850;DHT22;1940;51.052;13.678;2024-01-06T08:33:20;4.60;91.20
3850;DHT22;1940;51.052;13.678;2024-01-06T08:35:46;4.80;90.90
3850;DHT22;1940;51.052;13.678;2024-01-06T08:38:11;4.90;90.60
3850;DHT22;1940;51.052;13.678;2024-01-06T08:40:37;5.00;90.30
3850;DHT22;1940;51.052;13.678;2024-01-06T08:43:03;5.10;90.00
3850;DHT22;1940;51.052;13.678;2024-01-06T08:45:28;5.20;89.50
3850;DHT22;1940;51.052;13.678;2024-01-06T08:47:54;5.30;89.30
3850;DHT22;1940;51.052;13.678;2024-01-06T08:50:20;5.20;88.70
3850;DHT22;1940;51.052;13.678;2024-01-06T08:52:45;5.30;88.50
3850;DHT22;1940;51.052;13.678;2024-01-06T08:55:11;5.20;88.50
3850;DHT22;1940;51.052;13.678;2024-01-06T08:57:36;5.20;88.50
3850;DHT22;1940;51.052;13.678;2024-01-06T09:00:03;5.30;88.10
3850;DHT22;1940;51.052;13.678;2024-01-06T09:02:29;5.30;87.90
3850;DHT22;1940;51.052;13.678;2024-01-06T09:04:54;5.40;87.90
3850;DHT22;1940;51.052;13.678;2024-01-06T09:07:20;5.40;87.60
3850;DHT22;1940;51.052;13.678;2024-01-06T09:09:45;5.40;87.60
3850;DHT22;1940;51.052;13.678;2024-01-06T09:12:11;5.50;87.70
3850;DHT22;1940;51.052;13.678;2024-01-06T09:14:36;5.50;87.90
3850;DHT22;1940;51.052;13.678;2024-01-06T09:17:02;5.60;88.00
3850;DHT22;1940;51.052;13.678;2024-01-06T09:19:29;5.60;88.00
3850;DHT22;1940;51.052;13.678;2024-01-06T09:21:56;5.60;88.10
3850;DHT22;1940;51.052;13.678;2024-01-06T09:24:21;5.70;87.90
3850;DHT22;1940;51.052;13.678;2024-01-06T09:26:47;5.80;87.70
3850;DHT22;1940;51.052;13.678;2024-01-06T09:29:12;5.90;87.60
3850;DHT22;1940;51.052;13.678;2024-01-06T09:31:38;6.10;87.60
3850;DHT22;1940;51.052;13.678;2024-01-06T09:34:03;6.30;87.30
3850;DHT22;1940;51.052;13.678;2024-01-06T09:36:30;6.40;86.70
3850;DHT22;1940;51.052;13.678;2024-01-06T09:38:56;6.60;85.80
3850;DHT22;1940;51.052;13.678;2024-01-06T09:41:22;6.70;84.90
3850;DHT22;1940;51.052;13.678;2024-01-06T09:43:47;6.80;84.70
3850;DHT22;1940;51.052;13.678;2024-01-06T09:46:27;6.80;84.60
3850;DHT22;1940;51.052;13.678;2024-01-06T09:48:54;6.70;84.90
3850;DHT22;1940;51.052;13.678;2024-01-06T09:51:20;6.70;85.10
3850;DHT22;1940;51.052;13.678;2024-01-06T09:54:00;6.70;85.30
3850;DHT22;1940;51.052;13.678;2024-01-06T09:56:27;6.50;85.60
3850;DHT22;1940;51.052;13.678;2024-01-06T09:58:53;6.60;85.80
3850;DHT22;1940;51.052;13.678;2024-01-06T10:01:19;6.60;85.80
3850;DHT22;1940;51.052;13.678;2024-01-06T10:03:45;6.80;85.90
3850;DHT22;1940;51.052;13.678;2024-01-06T10:06:11;6.90;85.60
3850;DHT22;1940;51.052;13.678;2024-01-06T10:08:37;7.20;84.50
3850;DHT22;1940;51.052;13.678;2024-01-06T10:11:06;7.20;83.60
3850;DHT22;1940;51.052;13.678;2024-01-06T10:13:32;7.30;83.50
3850;DHT22;1940;51.052;13.678;2024-01-06T10:15:57;7.30;83.30
3850;DHT22;1940;51.052;13.678;2024-01-06T10:18:25;7.30;83.20
3850;DHT22;1940;51.052;13.678;2024-01-06T10:20:51;7.60;82.70
3850;DHT22;1940;51.052;13.678;2024-01-06T10:23:16;7.50;82.10
3850;DHT22;1940;51.052;13.678;2024-01-06T10:25:42;7.60;82.50
3850;DHT22;1940;51.052;13.678;2024-01-06T10:28:11;7.80;82.10
3850;DHT22;1940;51.052;13.678;2024-01-06T10:30:38;7.70;82.00
3850;DHT22;1940;51.052;13.678;2024-01-06T10:33:10;7.40;82.80
3850;DHT22;1940;51.052;13.678;2024-01-06T10:35:37;7.30;83.30
3850;DHT22;1940;51.052;13.678;2024-01-06T10:38:03;7.50;83.30
3850;DHT22;1940;51.052;13.678;2024-01-06T10:40:29;7.50;82.90
3850;DHT22;1940;51.052;13.678;2024-01-06T10:42:55;7.60;82.70
3850;DHT22;1940;51.052;13.678;2024-01-06T10:45:23;7.70;82.70
3850;DHT22;1940;51.052;13.678;2024-01-06T10:47:49;7.70;82.20
3850;DHT22;1940;51.052;13.678;2024-01-06T10:50:17;7.70;82.10
3850;DHT22;1940;51.052;13.678;2024-01-06T10:52:43;7.80;82.00
3850;DHT22;1940;51.052;13.678;2024-01-06T10:55:09;8.00;81.50
3850;DHT22;1940;51.052;13.678;2024-01-06T10:57:37;8.20;81.20
3850;DHT22;1940;51.052;13.678;2024-01-06T11:00:03;8.30;80.60
3850;DHT22;1940;51.052;13.678;2024-01-06T11:02:31;8.40;80.40
3850;DHT22;1940;51.052;13.678;2024-01-06T11:04:57;8.40;80.20
3850;DHT22;1940;51.052;13.678;2024-01-06T11:07:24;8.30;80.20
3850;DHT22;1940;51.052;13.678;2024-01-06T11:09:55;8.20;80.40
3850;DHT22;1940;51.052;13.678;2024-01-06T11:12:21;8.10;80.30
3850;DHT22;1940;51.052;13.678;2024-01-06T11:14:47;8.10;80.40
3850;DHT22;1940;51.052;13.678;2024-01-06T11:17:13;8.10;80.70
3850;DHT22;1940;51.052;13.678;2024-01-06T11:22:30;7.80;82.10
3850;DHT22;1940;51.052;13.678;2024-01-06T11:25:05;7.50;83.00
3850;DHT22;1940;51.052;13.678;2024-01-06T11:27:32;7.50;83.30
3850;DHT22;1940;51.052;13.678;2024-01-06T11:29:59;7.60;83.10
3850;DHT22;1940;51.052;13.678;2024-01-06T11:32:36;7.60;83.30
3850;DHT22;1940;51.052;13.678;2024-01-06T11:35:14;7.60;82.90
3850;DHT22;1940;51.052;13.678;2024-01-06T11:42:46;7.30;84.30
3850;DHT22;1940;51.052;13.678;2024-01-06T11:45:12;7.20;85.00
3850;DHT22;1940;51.052;13.678;2024-01-06T11:47:39;7.10;85.50
3850;DHT22;1940;51.052;13.678;2024-01-06T11:50:05;6.90;86.00
3850;DHT22;1940;51.052;13.678;2024-01-06T11:52:31;6.80;86.40
3850;DHT22;1940;51.052;13.678;2024-01-06T11:54:57;6.70;86.70
3850;DHT22;1940;51.052;13.678;2024-01-06T11:57:28;6.60;87.00
3850;DHT22;1940;51.052;13.678;2024-01-06T11:59:54;6.50;87.90
3850;DHT22;1940;51.052;13.678;2024-01-06T12:02:20;6.40;88.20
3850;DHT22;1940;51.052;13.678;2024-01-06T12:04:51;6.40;88.50
3850;DHT22;1940;51.052;13.678;2024-01-06T12:07:18;6.50;88.40
3850;DHT22;1940;51.052;13.678;2024-01-06T12:09:45;6.40;88.70
3850;DHT22;1940;51.052;13.678;2024-01-06T12:12:11;6.40;88.80
3850;DHT22;1940;51.052;13.678;2024-01-06T12:14:40;6.40;88.60
3850;DHT22;1940;51.052;13.678;2024-01-06T12:17:06;6.30;88.70
3850;DHT22;1940;51.052;13.678;2024-01-06T12:19:33;6.40;88.70
3850;DHT22;1940;51.052;13.678;2024-01-06T12:21:59;6.30;88.80
3850;DHT22;1940;51.052;13.678;2024-01-06T12:24:27;6.30;89.60
3850;DHT22;1940;51.052;13.678;2024-01-06T12:26:54;6.30;89.80
3850;DHT22;1940;51.052;13.678;2024-01-06T12:29:20;6.30;89.80
3850;DHT22;1940;51.052;13.678;2024-01-06T12:31:46;6.40;89.60
3850;DHT22;1940;51.052;13.678;2024-01-06T12:34:12;6.30;89.50
3850;DHT22;1940;51.052;13.678;2024-01-06T12:36:38;6.40;89.30
3850;DHT22;1940;51.052;13.678;2024-01-06T12:39:05;6.40;89.00
3850;DHT22;1940;51.052;13.678;2024-01-06T12:41:31;6.40;88.40
3850;DHT22;1940;51.052;13.678;2024-01-06T12:43:59;6.50;88.40
3850;DHT22;1940;51.052;13.678;2024-01-06T12:46:26;6.40;88.50
3850;DHT22;1940;51.052;13.678;2024-01-06T12:48:51;6.30;89.10
3850;DHT22;1940;51.052;13.678;2024-01-06T12:51:17;6.10;89.50
3850;DHT22;1940;51.052;13.678;2024-01-06T12:53:42;6.00;90.10
3850;DHT22;1940;51.052;13.678;2024-01-06T12:56:08;6.00;90.50
3850;DHT22;1940;51.052;13.678;2024-01-06T12:58:34;6.00;90.70
3850;DHT22;1940;51.052;13.678;2024-01-06T13:01:00;6.00;90.80
3850;DHT22;1940;51.052;13.678;2024-01-06T13:03:26;5.90;91.10
3850;DHT22;1940;51.052;13.678;2024-01-06T13:05:51;5.80;91.50
3850;DHT22;1940;51.052;13.678;2024-01-06T13:08:17;5.80;91.70
3850;DHT22;1940;51.052;13.678;2024-01-06T13:10:43;5.80;91.50
3850;DHT22;1940;51.052;13.678;2024-01-06T13:13:08;5.70;91.30
3850;DHT22;1940;51.052;13.678;2024-01-06T13:15:34;5.60;91.40
3850;DHT22;1940;51.052;13.678;2024-01-06T13:18:00;5.50;91.60
3850;DHT22;1940;51.052;13.678;2024-01-06T13:20:25;5.50;91.90
3850;DHT22;1940;51.052;13.678;2024-01-06T13:22:50;5.40;91.70
3850;DHT22;1940;51.052;13.678;2024-01-06T13:25:17;5.30;91.90
3850;DHT22;1940;51.052;13.678;2024-01-06T13:27:42;5.20;92.20
3850;DHT22;1940;51.052;13.678;2024-01-06T13:30:08;5.20;92.40
3850;DHT22;1940;51.052;13.678;2024-01-06T13:32:33;5.30;92.30
3850;DHT22;1940;51.052;13.678;2024-01-06T13:34:59;5.30;92.50
3850;DHT22;1940;51.052;13.678;2024-01-06T13:37:31;5.40;92.00
3850;DHT22;1940;51.052;13.678;2024-01-06T13:39:56;5.30;91.80
3850;DHT22;1940;51.052;13.678;2024-01-06T13:42:22;5.20;91.70
3850;DHT22;1940;51.052;13.678;2024-01-06T13:44:47;5.20;92.30
3850;DHT22;1940;51.052;13.678;2024-01-06T13:47:16;5.20;91.90
3850;DHT22;1940;51.052;13.678;2024-01-06T13:49:41;5.20;91.80
3850;DHT22;1940;51.052;13.678;2024-01-06T13:52:07;5.20;91.90
3850;DHT22;1940;51.052;13.678;2024-01-06T13:54:35;5.20;92.10
3850;DHT22;1940;51.052;13.678;2024-01-06T13:57:01;5.10;92.10
3850;DHT22;1940;51.052;13.678;2024-01-06T13:59:27;5.10;92.10
3850;DHT22;1940;51.052;13.678;2024-01-06T14:01:53;5.10;91.90
3850;DHT22;1940;51.052;13.678;2024-01-06T14:04:18;5.00;92.10
3850;DHT22;1940;51.052;13.678;2024-01-06T14:06:44;5.00;92.30
3850;DHT22;1940;51.052;13.678;2024-01-06T14:09:13;5.00;92.40
3850;DHT22;1940;51.052;13.678;2024-01-06T14:11:38;5.00;92.60
3850;DHT22;1940;51.052;13.678;2024-01-06T14:14:04;5.10;92.40
3850;DHT22;1940;51.052;13.678;2024-01-06T14:16:30;5.00;92.40
3850;DHT22;1940;51.052;13.678;2024-01-06T14:18:56;4.90;92.30
3850;DHT22;1940;51.052;13.678;2024-01-06T14:21:21;4.90;92.70
3850;DHT22;1940;51.052;13.678;2024-01-06T14:23:47;4.90;92.90
3850;DHT22;1940;51.052;13.678;2024-01-06T14:26:16;4.80;92.80
3850;DHT22;1940;51.052;13.678;2024-01-06T14:28:43;4.70;92.80
3850;DHT22;1940;51.052;13.678;2024-01-06T14:31:09;4.60;92.60
3850;DHT22;1940;51.052;13.678;2024-01-06T14:33:35;4.60;92.70
3850;DHT22;1940;51.052;13.678;2024-01-06T14:36:01;4.60;92.50
3850;DHT22;1940;51.052;13.678;2024-01-06T14:38:27;4.50;92.70
3850;DHT22;1940;51.052;13.678;2024-01-06T14:40:52;4.50;92.80
3850;DHT22;1940;51.052;13.678;2024-01-06T14:43:18;4.40;93.00
3850;DHT22;1940;51.052;13.678;2024-01-06T14:45:44;4.30;93.20
3850;DHT22;1940;51.052;13.678;2024-01-06T14:48:09;4.30;93.40
3850;DHT22;1940;51.052;13.678;2024-01-06T14:50:35;4.30;93.20
3850;DHT22;1940;51.052;13.678;2024-01-06T14:53:01;4.20;93.30
3850;DHT22;1940;51.052;13.678;2024-01-06T14:55:26;4.10;93.30
3850;DHT22;1940;51.052;13.678;2024-01-06T14:57:52;4.10;93.30
3850;DHT22;1940;51.052;13.678;2024-01-06T15:00:17;4.10;93.30
3850;DHT22;1940;51.052;13.678;2024-01-06T15:02:43;4.00;93.50
3850;DHT22;1940;51.052;13.678;2024-01-06T15:05:11;4.00;93.60
3850;DHT22;1940;51.052;13.678;2024-01-06T15:07:37;3.90;94.00
3850;DHT22;1940;51.052;13.678;2024-01-06T15:10:03;3.90;93.80
3850;DHT22;1940;51.052;13.678;2024-01-06T15:12:29;3.80;93.90
3850;DHT22;1940;51.052;13.678;2024-01-06T15:14:55;3.70;94.00
3850;DHT22;1940;51.052;13.678;2024-01-06T15:17:20;3.60;94.20
3850;DHT22;1940;51.052;13.678;2024-01-06T15:19:46;3.60;94.40
3850;DHT22;1940;51.052;13.678;2024-01-06T15:22:12;3.50;94.40
3850;DHT22;1940;51.052;13.678;2024-01-06T15:24:39;3.50;94.60
3850;DHT22;1940;51.052;13.678;2024-01-06T15:27:04;3.50;94.80
3850;DHT22;1940;51.052;13.678;2024-01-06T15:29:30;3.50;94.70
3850;DHT22;1940;51.052;13.678;2024-01-06T15:31:55;3.50;94.90
3850;DHT22;1940;51.052;13.678;2024-01-06T15:34:23;3.50;94.80
3850;DHT22;1940;51.052;13.678;2024-01-06T15:36:49;3.50;94.60
3850;DHT22;1940;51.052;13.678;2024-01-06T15:39:14;3.50;94.30
3850;DHT22;1940;51.052;13.678;2024-01-06T15:41:40;3.40;94.40
3850;DHT22;1940;51.052;13.678;2024-01-06T15:44:05;3.40;94.60
3850;DHT22;1940;51.052;13.678;2024-01-06T15:46:31;3.30;94.70
3850;DHT22;1940;51.052;13.678;2024-01-06T15:48:57;3.30;94.80
3850;DHT22;1940;51.052;13.678;2024-01-06T15:51:23;3.40;94.80
3850;DHT22;1940;51.052;13.678;2024-01-06T15:53:48;3.40;94.60
3850;DHT22;1940;51.052;13.678;2024-01-06T15:56:14;3.40;94.70
3850;DHT22;1940;51.052;13.678;2024-01-06T15:58:40;3.40;94.70
3850;DHT22;1940;51.052;13.678;2024-01-06T16:01:05;3.50;94.50